Terminal Aerodrome Forecast
Issued by NWS Sterling, VA

Current Version | Previous Version | Graphics & Text | Print | Product List | Glossary On
Versions: 1 2 3 4 5 6 7 8 9 10 11 12 13 14 15 16 17 18 19 20 21 22 23 24 25
000
FTUS41 KLWX 211700
TAFIAD
TAF
KIAD 211720Z 2118/2224 20008KT P6SM SKC
     FM212000 24008KT P6SM BKN050
     FM220000 27004KT P6SM BKN060
     FM220100 27004KT P6SM SCT060
     FM220400 29011G20KT P6SM SCT080
     FM221400 33012G22KT P6SM SCT050=

USA.gov is the U.S. government's official web portal to all federal, state and local government web resources and services.